Time;durP1;ratioP1;P1;durP2;ratioP2;P2;SDS_P1;SDS_P2;PMS_P1;PMS_P2;Temp;Humidity;BMP_temperature;BMP_pressure;BME280_temperature;BME280_humidity;BME280_pressure;Samples;Min_cycle;Max_cycle;Signal;HPM_P1;HPM_P2
2020/12/08 00:00:46;;;;;;;55.12;28.40;;;;;;;1.59;86.54;97393.06;1792513;78;21026;-77
2020/12/08 00:03:12;;;;;;;60.33;32.08;;;;;;;1.68;86.38;97400.98;1772679;80;21054;-78
2020/12/08 00:05:38;;;;;;;56.48;30.50;;;;;;;1.73;86.33;97392.27;1772692;79;21012;-77
2020/12/08 00:08:05;;;;;;;63.40;29.82;;;;;;;1.69;86.68;97391.92;1792593;80;22174;-78
2020/12/08 00:10:31;;;;;;;59.70;32.00;;;;;;;1.78;86.27;97390.20;1792497;78;21145;-78
2020/12/08 00:12:57;;;;;;;55.75;28.85;;;;;;;1.85;86.20;97392.22;1792548;80;20923;-78
2020/12/08 00:15:23;;;;;;;54.95;30.57;;;;;;;1.89;86.10;97393.38;1792532;78;21113;-78
2020/12/08 00:17:49;;;;;;;53.13;29.60;;;;;;;1.88;85.96;97393.06;1772575;80;20946;-77
2020/12/08 00:20:17;;;;;;;54.10;28.12;;;;;;;1.86;85.85;97395.98;1792595;78;21366;-78
2020/12/08 00:22:43;;;;;;;55.40;28.30;;;;;;;1.80;85.76;97390.27;1772412;80;21574;-77
2020/12/08 00:25:09;;;;;;;55.92;31.60;;;;;;;1.74;85.68;97389.88;1792536;78;21102;-78
2020/12/08 00:27:41;;;;;;;68.52;32.93;;;;;;;1.74;85.63;97389.88;1792562;80;21209;-78
2020/12/08 00:30:12;;;;;;;60.30;31.85;;;;;;;1.76;85.55;97394.45;1792133;78;21138;-77
2020/12/08 00:32:39;;;;;;;59.70;32.58;;;;;;;1.69;85.58;97390.58;1792350;79;21174;-78
2020/12/08 00:35:06;;;;;;;59.00;31.75;;;;;;;1.69;85.43;97392.45;1792605;78;21145;-77
2020/12/08 00:37:33;;;;;;;57.08;29.25;;;;;;;1.66;86.06;97389.73;1792415;80;21121;-78
2020/12/08 00:39:59;;;;;;;48.75;30.27;;;;;;;1.63;85.90;97387.55;1792507;78;21130;-78
2020/12/08 00:42:27;;;;;;;56.42;30.05;;;;;;;1.65;85.64;97384.64;1792618;80;21344;-78
2020/12/08 00:44:53;;;;;;;54.00;28.42;;;;;;;1.61;86.00;97391.48;1792402;78;21571;-78
2020/12/08 00:47:21;;;;;;;54.90;29.87;;;;;;;1.61;85.87;97386.14;1792538;80;21250;-77
2020/12/08 00:49:47;;;;;;;62.30;31.87;;;;;;;1.62;86.01;97395.77;1792424;78;21535;-78
2020/12/08 00:52:13;;;;;;;54.85;30.23;;;;;;;1.66;85.96;97392.41;1792541;80;21130;-78
2020/12/08 00:54:41;;;;;;;48.83;27.98;;;;;;;1.68;85.99;97396.98;1792663;78;21031;-78
2020/12/08 00:57:07;;;;;;;66.65;32.35;;;;;;;1.68;85.79;97397.50;1792699;80;21240;-78
2020/12/08 00:59:33;;;;;;;63.87;33.33;;;;;;;1.69;85.72;97397.78;1792497;78;20892;-78
2020/12/08 01:02:01;;;;;;;70.55;34.03;;;;;;;1.61;86.01;97395.49;1772643;80;21170;-78
2020/12/08 01:04:28;;;;;;;56.55;31.50;;;;;;;1.59;86.02;97402.94;1792520;78;21231;-78
2020/12/08 01:06:58;;;;;;;55.78;28.92;;;;;;;1.58;86.20;97399.45;1792335;79;21514;-78
2020/12/08 01:09:23;;;;;;;;;;;;;;;1.58;85.93;97402.66;1795238;78;22102;-78
2020/12/08 01:11:49;;;;;;;53.75;29.07;;;;;;;1.60;86.50;97400.55;1792473;79;20223;-78
2020/12/08 01:14:15;;;;;;;57.35;30.10;;;;;;;1.56;86.45;97403.42;1792581;78;20900;-78
2020/12/08 01:16:41;;;;;;;63.80;32.40;;;;;;;1.52;86.50;97404.40;1792500;80;20924;-79
2020/12/08 01:19:07;;;;;;;56.60;31.00;;;;;;;1.52;86.07;97395.05;1792466;78;21003;-78
2020/12/08 01:21:33;;;;;;;60.63;31.97;;;;;;;1.51;86.14;97398.77;1792517;80;21563;-79
2020/12/08 01:23:59;;;;;;;54.65;30.10;;;;;;;1.52;86.26;97399.59;1792565;80;20921;-78
2020/12/08 01:26:28;;;;;;;60.17;33.18;;;;;;;1.51;86.30;97390.77;1792465;78;21043;-79
2020/12/08 01:28:57;;;;;;;69.58;35.43;;;;;;;1.51;86.05;97391.30;1792449;80;21136;-79
2020/12/08 01:31:31;;;;;;;61.93;34.40;;;;;;;1.52;86.16;97385.70;1792709;78;21115;-77
2020/12/08 01:33:57;;;;;;;63.60;32.95;;;;;;;1.51;86.57;97383.28;1792671;79;21144;-78
2020/12/08 01:36:23;;;;;;;71.80;34.55;;;;;;;1.57;86.19;97383.67;1772299;79;20999;-78
2020/12/08 01:38:49;;;;;;;63.38;34.38;;;;;;;1.63;86.12;97390.22;1772730;80;21134;-78
2020/12/08 01:41:18;;;;;;;59.77;32.90;;;;;;;1.68;86.04;97384.95;1772407;79;20976;-77
2020/12/08 01:43:47;;;;;;;61.88;34.30;;;;;;;1.69;86.10;97378.56;1792485;80;21121;-78
2020/12/08 01:46:16;;;;;;;57.58;30.32;;;;;;;1.68;85.99;97378.28;1792661;78;21156;-78
2020/12/08 01:48:43;;;;;;;52.70;29.65;;;;;;;1.75;86.04;97377.34;1792639;79;25172;-78
2020/12/08 01:51:09;;;;;;;58.98;31.33;;;;;;;1.69;86.08;97373.22;1792677;78;21027;-78
2020/12/08 01:53:35;;;;;;;59.75;30.75;;;;;;;1.70;85.81;97375.37;1792538;80;21672;-77
2020/12/08 01:56:01;;;;;;;59.10;30.68;;;;;;;1.72;85.95;97379.97;1792440;78;20926;-78
2020/12/08 01:58:27;;;;;;;59.98;30.75;;;;;;;1.75;86.08;97375.48;1792566;80;21278;-78
2020/12/08 02:00:53;;;;;;;68.00;34.45;;;;;;;1.71;86.04;97373.01;1772422;79;21139;-78
2020/12/08 02:03:19;;;;;;;66.00;32.90;;;;;;;1.74;85.96;97376.53;1772709;80;21015;-78
2020/12/08 02:05:45;;;;;;;60.30;29.60;;;;;;;1.77;85.82;97373.37;1792673;78;21468;-78
2020/12/08 02:08:11;;;;;;;61.60;32.95;;;;;;;1.74;85.62;97373.86;1792647;80;20932;-78
2020/12/08 02:10:37;;;;;;;58.23;30.75;;;;;;;1.75;85.72;97369.33;1792548;78;21154;-78
2020/12/08 02:13:05;;;;;;;56.35;29.98;;;;;;;1.74;85.68;97372.52;1772556;80;20896;-78
2020/12/08 02:15:32;;;;;;;62.40;30.10;;;;;;;1.72;86.27;97382.64;1792732;78;21131;-78
2020/12/08 02:17:58;;;;;;;55.83;29.87;;;;;;;1.68;86.15;97377.47;1792499;80;21394;-78
2020/12/08 02:20:26;;;;;;;58.55;29.72;;;;;;;1.68;86.22;97368.12;1792473;78;21012;-78
2020/12/08 02:22:58;;;;;;;59.55;31.10;;;;;;;1.68;85.97;97371.61;1792671;80;21535;-77
2020/12/08 02:25:24;;;;;;;57.95;31.10;;;;;;;1.75;85.98;97372.80;1792485;78;21158;-77
2020/12/08 02:27:50;;;;;;;62.23;30.55;;;;;;;1.78;85.99;97372.84;1792523;80;21598;-77
2020/12/08 02:30:16;;;;;;;64.15;31.97;;;;;;;1.79;86.02;97371.27;1792505;78;20885;-78
2020/12/08 02:32:42;;;;;;;69.45;34.05;;;;;;;1.81;85.99;97379.87;1792517;80;20924;-78
2020/12/08 02:35:08;;;;;;;62.73;31.75;;;;;;;1.80;85.79;97382.27;1792550;78;21204;-78
2020/12/08 02:37:35;;;;;;;58.05;31.65;;;;;;;1.77;85.98;97380.05;1772252;80;21067;-78
2020/12/08 02:40:04;;;;;;;57.85;30.08;;;;;;;1.77;85.79;97373.37;1792557;78;21570;-78
2020/12/08 02:42:29;;;;;;;61.35;30.10;;;;;;;1.77;85.84;97377.91;1792442;80;21177;-77
2020/12/08 02:44:56;;;;;;;58.35;30.02;;;;;;;1.77;85.56;97380.57;1792563;78;20973;-78
2020/12/08 02:47:22;;;;;;;57.35;29.77;;;;;;;1.76;85.64;97381.63;1792466;80;21361;-78
2020/12/08 02:49:47;;;;;;;55.15;29.95;;;;;;;1.75;85.52;97385.34;1792336;78;21573;-77
2020/12/08 02:52:13;;;;;;;58.35;29.67;;;;;;;1.74;85.72;97384.55;1792480;80;21007;-78
2020/12/08 02:54:40;;;;;;;55.83;32.35;;;;;;;1.69;85.57;97383.91;1792412;78;21597;-78
2020/12/08 02:57:06;;;;;;;52.40;27.93;;;;;;;1.67;86.01;97386.02;1792418;80;21039;-78
2020/12/08 02:59:34;;;;;;;59.23;28.90;;;;;;;1.72;85.88;97388.51;1792477;78;21784;-78
2020/12/08 03:01:59;;;;;;;57.80;30.77;;;;;;;1.69;85.81;97387.91;1792267;80;21198;-77
2020/12/08 03:04:25;;;;;;;55.05;30.20;;;;;;;1.62;85.94;97389.09;1792493;78;20987;-77
2020/12/08 03:06:51;;;;;;;60.78;28.02;;;;;;;1.55;86.17;97391.12;1792412;80;20912;-78
2020/12/08 03:09:17;;;;;;;60.10;29.63;;;;;;;1.51;86.38;97392.09;1792527;78;20965;-78
2020/12/08 03:11:43;;;;;;;55.52;27.25;;;;;;;1.48;86.14;97401.13;1792474;80;21183;-78
2020/12/08 03:14:09;;;;;;;54.80;27.40;;;;;;;1.38;86.56;97387.85;1792294;78;21848;-78
2020/12/08 03:16:35;;;;;;;54.63;27.48;;;;;;;1.28;86.81;97393.48;1792414;80;21506;-79
2020/12/08 03:19:01;;;;;;;58.63;29.42;;;;;;;1.28;86.25;97387.66;1792488;80;21067;-78
2020/12/08 03:21:27;;;;;;;57.43;26.37;;;;;;;1.32;86.21;97400.80;1792372;78;21011;-78
2020/12/08 03:23:53;;;;;;;57.75;29.12;;;;;;;1.31;86.53;97393.03;1772589;80;21881;-79
2020/12/08 03:26:22;;;;;;;61.23;30.60;;;;;;;1.26;86.98;97395.59;1792484;78;21108;-77
2020/12/08 03:28:48;;;;;;;49.15;27.30;;;;;;;1.22;87.05;97393.92;1792575;80;21115;-78
2020/12/08 03:31:15;;;;;;;54.55;27.95;;;;;;;1.26;86.60;97399.06;1792563;78;21034;-79
2020/12/08 03:33:41;;;;;;;50.00;25.88;;;;;;;1.25;86.91;97400.64;1792615;80;21106;-79
2020/12/08 03:36:12;;;;;;;49.83;24.90;;;;;;;1.24;86.66;97407.84;1792523;78;21336;-79
2020/12/08 03:38:38;;;;;;;51.10;24.65;;;;;;;1.23;86.74;97405.41;1772662;80;21107;-79
2020/12/08 03:41:04;;;;;;;47.90;24.70;;;;;;;1.17;86.78;97409.81;1792657;78;20880;-79
2020/12/08 03:43:33;;;;;;;56.08;26.68;;;;;;;1.14;87.04;97408.95;1772612;80;21245;-78
2020/12/08 03:45:59;;;;;;;57.08;27.70;;;;;;;1.10;87.00;97402.45;1792418;78;21122;-79
2020/12/08 03:48:26;;;;;;;60.75;28.60;;;;;;;1.13;86.60;97404.67;1792574;80;22258;-78
2020/12/08 03:50:52;;;;;;;49.85;27.82;;;;;;;1.16;86.62;97407.39;1792339;78;21107;-78
2020/12/08 03:53:19;;;;;;;54.53;26.37;;;;;;;1.19;86.56;97399.71;1772409;80;21035;-79
2020/12/08 03:55:44;;;;;;;55.58;29.57;;;;;;;1.22;86.60;97400.59;1792490;78;21177;-78
2020/12/08 03:58:10;;;;;;;53.38;27.35;;;;;;;1.27;86.64;97409.22;1792516;80;20932;-79
2020/12/08 04:00:36;;;;;;;50.83;26.07;;;;;;;1.32;86.45;97404.80;1792597;78;21262;-79
2020/12/08 04:03:02;;;;;;;64.75;31.35;;;;;;;1.27;86.39;97406.02;1792508;80;21555;-79
2020/12/08 04:05:28;;;;;;;52.95;28.55;;;;;;;1.28;86.38;97401.49;1792544;78;21031;-78
2020/12/08 04:07:54;;;;;;;54.33;27.48;;;;;;;1.32;86.46;97409.33;1792509;80;20979;-78
2020/12/08 04:10:21;;;;;;;55.55;28.95;;;;;;;1.29;86.36;97406.62;1792681;78;21007;-79
2020/12/08 04:12:47;;;;;;;59.63;28.85;;;;;;;1.23;86.37;97407.55;1792600;80;22163;-79
2020/12/08 04:15:13;;;;;;;51.88;28.57;;;;;;;1.13;87.07;97405.48;1792559;78;21094;-79
2020/12/08 04:17:38;;;;;;;52.98;28.70;;;;;;;1.13;86.80;97412.67;1792490;80;21115;-79
2020/12/08 04:20:04;;;;;;;76.57;32.45;;;;;;;1.04;87.51;97414.89;1792583;78;20912;-78
2020/12/08 04:22:30;;;;;;;61.20;31.45;;;;;;;1.03;87.37;97421.80;1792555;80;20935;-78
2020/12/08 04:24:56;;;;;;;61.92;29.23;;;;;;;0.98;87.86;97423.01;1792593;78;21173;-79
2020/12/08 04:27:24;;;;;;;50.58;24.25;;;;;;;0.96;87.83;97431.77;1792467;80;21539;-78
2020/12/08 04:29:50;;;;;;;53.60;26.55;;;;;;;0.96;87.99;97428.58;1792469;78;21184;-79
2020/12/08 04:32:16;;;;;;;60.45;29.02;;;;;;;0.97;87.76;97432.06;1792634;80;21436;-79
2020/12/08 04:34:42;;;;;;;53.92;25.85;;;;;;;1.03;87.42;97439.14;1792678;78;21107;-78
2020/12/08 04:37:08;;;;;;;53.00;27.15;;;;;;;1.07;87.34;97433.62;1792353;80;21808;-77
2020/12/08 04:39:37;;;;;;;53.17;26.50;;;;;;;1.07;87.49;97434.95;1792433;78;21031;-79
2020/12/08 04:42:02;;;;;;;53.95;26.65;;;;;;;1.06;87.41;97438.14;1792285;79;21213;-78
2020/12/08 04:44:29;;;;;;;56.75;29.90;;;;;;;1.05;87.56;97435.19;1772595;79;20912;-77
2020/12/08 04:49:37;;;;;;;52.33;26.37;;;;;;;1.04;87.95;97428.23;1851966;77;22743;-78
2020/12/08 04:52:02;;;;;;;51.53;27.22;;;;;;;0.95;88.14;97436.30;1819905;78;20939;-77
2020/12/08 04:54:28;;;;;;;54.60;27.82;;;;;;;1.05;87.34;97439.72;1819675;78;22131;-77
2020/12/08 04:56:54;;;;;;;54.67;27.32;;;;;;;1.09;87.51;97431.00;1819689;78;20915;-77
2020/12/08 04:59:23;;;;;;;54.10;27.62;;;;;;;1.12;87.37;97439.08;1819808;78;21589;-77
2020/12/08 05:01:49;;;;;;;56.70;26.37;;;;;;;1.17;87.19;97433.02;1787646;78;21172;-78
2020/12/08 05:04:23;;;;;;;63.20;33.80;;;;;;;1.24;87.09;97432.38;1787918;78;21105;-78
2020/12/08 05:07:02;;;;;;;60.60;31.55;;;;;;;1.27;86.85;97436.72;1814719;78;22193;-77
2020/12/08 05:09:28;;;;;;;63.33;33.92;;;;;;;1.32;86.95;97436.84;1819770;78;21114;-77
2020/12/08 05:11:58;;;;;;;62.73;31.33;;;;;;;1.40;87.02;97437.81;1819604;78;21636;-78
2020/12/08 05:14:24;;;;;;;59.25;28.98;;;;;;;1.48;87.11;97446.52;1819563;78;21226;-78
2020/12/08 05:17:03;;;;;;;59.93;28.45;;;;;;;1.51;86.84;97441.50;1819696;78;21195;-79
2020/12/08 05:19:30;;;;;;;74.15;33.23;;;;;;;1.49;86.46;97448.13;1814758;78;21240;-77
2020/12/08 05:21:56;;;;;;;66.82;34.15;;;;;;;1.48;86.50;97450.52;1819575;78;21174;-78
2020/12/08 05:24:32;;;;;;;63.28;33.30;;;;;;;1.41;86.54;97445.30;1787668;78;21099;-78
2020/12/08 05:27:00;;;;;;;68.67;32.98;;;;;;;1.39;86.34;97450.07;1819620;78;21189;-77
2020/12/08 05:29:29;;;;;;;56.85;29.52;;;;;;;1.39;86.54;97454.88;1819504;78;21194;-78
2020/12/08 05:31:55;;;;;;;63.08;30.17;;;;;;;1.37;86.22;97458.84;1819208;78;21507;-78
2020/12/08 05:34:23;;;;;;;59.88;29.80;;;;;;;1.40;86.37;97454.36;1819552;78;21002;-78
2020/12/08 05:36:52;;;;;;;54.48;27.17;;;;;;;1.37;86.42;97456.17;1819605;78;21190;-78
2020/12/08 05:39:22;;;;;;;;;;;;;;;1.39;86.35;97458.08;1790723;78;21118;-78
2020/12/08 05:41:49;;;;;;;53.52;26.45;;;;;;;1.33;86.66;97456.34;1819590;78;20255;-77
2020/12/08 05:47:00;;;;;;;50.75;25.20;;;;;;;1.33;86.47;97455.81;1851869;77;22715;-76
2020/12/08 05:49:26;;;;;;;54.60;26.30;;;;;;;1.18;86.57;97466.67;1813183;78;21204;-78
2020/12/08 05:51:51;;;;;;;61.00;26.23;;;;;;;1.16;86.43;97470.10;1776404;80;21276;-78
2020/12/08 05:54:20;;;;;;;55.92;28.42;;;;;;;1.11;86.98;97474.78;1776283;80;20987;-79
2020/12/08 05:56:53;;;;;;;55.55;28.00;;;;;;;1.09;87.06;97478.22;1771353;80;21079;-78
2020/12/08 05:59:28;;;;;;;53.15;26.97;;;;;;;1.13;86.87;97483.40;1746608;80;21149;-78
2020/12/08 06:01:54;;;;;;;54.45;26.65;;;;;;;1.18;86.78;97484.02;1776338;80;21098;-77
2020/12/08 06:04:20;;;;;;;68.10;32.60;;;;;;;1.26;86.72;97478.33;1776363;80;21823;-78
2020/12/08 06:06:48;;;;;;;64.50;31.02;;;;;;;1.30;86.57;97474.16;1776166;80;21051;-78
2020/12/08 06:09:29;;;;;;;61.33;32.78;;;;;;;1.28;86.49;97473.56;1776267;80;21147;-78
2020/12/08 06:11:55;;;;;;;77.27;37.28;;;;;;;1.21;86.77;97476.38;1776353;80;21095;-77
2020/12/08 06:14:36;;;;;;;66.42;33.10;;;;;;;1.26;86.73;97481.00;1776394;80;21666;-77
2020/12/08 06:17:04;;;;;;;65.78;32.60;;;;;;;1.26;86.82;97485.00;1776366;80;21200;-79
2020/12/08 06:19:31;;;;;;;69.27;33.63;;;;;;;1.27;86.65;97483.43;1776430;80;21091;-79
2020/12/08 06:21:58;;;;;;;66.60;32.28;;;;;;;1.27;86.60;97484.77;1771245;80;21043;-79
2020/12/08 06:24:24;;;;;;;66.87;32.70;;;;;;;1.28;86.59;97485.08;1776250;80;21728;-78
2020/12/08 06:26:51;;;;;;;57.55;29.52;;;;;;;1.31;86.32;97493.95;1776267;80;21111;-79
2020/12/08 06:29:19;;;;;;;61.37;29.65;;;;;;;1.27;86.56;97500.78;1776213;80;21623;-79
2020/12/08 06:31:47;;;;;;;77.20;37.23;;;;;;;1.26;86.60;97495.16;1776220;80;21460;-79
2020/12/08 06:34:26;;;;;;;76.10;37.63;;;;;;;1.28;86.55;97504.27;1771464;80;21099;-79
2020/12/08 06:36:55;;;;;;;83.95;42.43;;;;;;;1.32;86.50;97506.25;1776371;80;21590;-76
2020/12/08 06:39:21;;;;;;;82.27;42.78;;;;;;;1.41;86.69;97506.18;1771354;80;21594;-78
2020/12/08 06:41:47;;;;;;;85.12;42.55;;;;;;;1.44;86.45;97500.08;1776266;80;21516;-78
2020/12/08 06:44:16;;;;;;;78.75;41.63;;;;;;;1.45;86.60;97499.84;1776235;80;21036;-78
2020/12/08 06:46:59;;;;;;;68.10;35.48;;;;;;;1.52;86.72;97497.05;1776248;80;21103;-78
2020/12/08 06:49:27;;;;;;;60.58;30.25;;;;;;;1.50;86.54;97504.49;1775944;80;21239;-78
2020/12/08 06:51:57;;;;;;;60.95;30.77;;;;;;;1.50;86.37;97500.48;1766355;80;21037;-78
2020/12/08 06:54:24;;;;;;;70.55;33.45;;;;;;;1.44;85.68;97502.22;1774448;80;21591;-79
2020/12/08 06:56:50;;;;;;;65.22;31.02;;;;;;;1.36;86.24;97507.39;1776026;80;21134;-79
2020/12/08 06:59:28;;;;;;;64.05;31.95;;;;;;;1.41;86.18;97502.70;1745282;80;21060;-79
2020/12/08 07:01:55;;;;;;;70.25;34.85;;;;;;;1.37;86.01;97498.36;1775334;80;21154;-78
2020/12/08 07:04:22;;;;;;;79.20;39.53;;;;;;;1.37;86.11;97491.69;1775716;80;21154;-78
2020/12/08 07:06:48;;;;;;;66.92;31.57;;;;;;;1.43;86.42;97487.78;1775701;80;21888;-78
2020/12/08 07:09:14;;;;;;;68.85;36.20;;;;;;;1.51;86.64;97495.44;1775625;80;20913;-77
2020/12/08 07:11:42;;;;;;;67.53;33.10;;;;;;;1.56;86.72;97504.38;1775719;80;21130;-77
2020/12/08 07:14:08;;;;;;;51.25;25.97;;;;;;;1.51;86.64;97512.79;1775683;80;21122;-78
2020/12/08 07:16:34;;;;;;;67.10;32.35;;;;;;;1.54;86.35;97509.15;1775732;80;21135;-78
2020/12/08 07:19:05;;;;;;;69.30;32.48;;;;;;;1.49;86.24;97509.55;1775775;80;22093;-77
2020/12/08 07:21:31;;;;;;;66.45;32.28;;;;;;;1.49;86.47;97506.36;1775676;80;21114;-78
2020/12/08 07:23:57;;;;;;;76.57;35.35;;;;;;;1.47;87.08;97501.78;1775761;80;21198;-77
2020/12/08 07:26:26;;;;;;;66.55;31.65;;;;;;;1.50;86.74;97501.30;1775630;80;20979;-78
2020/12/08 07:28:52;;;;;;;74.95;37.90;;;;;;;1.53;86.30;97502.67;1775834;80;21107;-78
2020/12/08 07:31:29;;;;;;;66.53;32.23;;;;;;;1.50;86.49;97509.83;1745166;80;23051;-79
2020/12/08 07:33:55;;;;;;;61.00;28.55;;;;;;;1.48;86.84;97519.95;1775654;80;21142;-77
2020/12/08 07:36:31;;;;;;;58.05;29.07;;;;;;;1.38;86.88;97519.20;1775628;80;21182;-77
2020/12/08 07:39:02;;;;;;;67.92;30.55;;;;;;;1.34;86.85;97521.50;1775799;80;21083;-77
2020/12/08 07:41:30;;;;;;;65.87;32.23;;;;;;;1.40;86.68;97522.44;1775454;80;21132;-77
2020/12/08 07:43:58;;;;;;;68.15;31.52;;;;;;;1.45;86.71;97521.72;1775672;80;21361;-78
2020/12/08 07:46:29;;;;;;;55.78;28.98;;;;;;;1.52;86.70;97524.56;1775433;80;21055;-78
2020/12/08 07:49:06;;;;;;;58.48;28.20;;;;;;;1.56;86.39;97528.94;1745256;80;21099;-78
2020/12/08 07:51:33;;;;;;;67.53;36.73;;;;;;;1.54;86.48;97527.00;1775596;80;21127;-77
2020/12/08 07:54:00;;;;;;;80.40;46.42;;;;;;;1.57;86.26;97528.70;1775772;80;21614;-77
2020/12/08 07:56:34;;;;;;;56.28;29.50;;;;;;;1.57;86.29;97530.55;1775594;80;21266;-78
2020/12/08 07:58:59;;;;;;;52.95;24.37;;;;;;;1.55;86.17;97524.64;1775421;79;21175;-78
2020/12/08 08:01:26;;;;;;;46.75;25.37;;;;;;;1.54;86.16;97534.52;1775625;80;21507;-78
2020/12/08 08:03:52;;;;;;;48.45;25.23;;;;;;;1.56;86.20;97532.42;1775708;80;21132;-78
2020/12/08 08:09:05;;;;;;;50.95;24.77;;;;;;;1.62;86.20;97537.33;1874335;75;22632;-77
2020/12/08 08:11:28;;;;;;;50.28;25.02;;;;;;;1.60;86.06;97544.24;1852586;77;21125;-78
2020/12/08 08:13:54;;;;;;;45.30;24.02;;;;;;;1.52;85.97;97545.93;1825712;77;21903;-79
2020/12/08 08:16:21;;;;;;;49.88;23.90;;;;;;;1.40;86.52;97548.61;1856456;77;20929;-79
2020/12/08 08:18:49;;;;;;;53.80;24.82;;;;;;;1.41;86.08;97556.10;1856462;77;21444;-78
2020/12/08 08:21:19;;;;;;;47.93;23.80;;;;;;;1.48;86.02;97554.13;1856456;77;21086;-78
2020/12/08 08:23:49;;;;;;;47.98;26.73;;;;;;;1.53;86.02;97552.89;1856422;77;21131;-78
2020/12/08 08:26:15;;;;;;;49.23;23.38;;;;;;;1.58;85.84;97547.68;1856421;77;21105;-78
2020/12/08 08:28:41;;;;;;;51.35;26.02;;;;;;;1.63;85.87;97549.14;1825633;77;21059;-79
2020/12/08 08:31:08;;;;;;;54.48;28.02;;;;;;;1.73;85.95;97557.89;1856484;77;21543;-78
2020/12/08 08:33:34;;;;;;;49.63;26.17;;;;;;;1.77;85.65;97551.55;1856429;77;21118;-79
2020/12/08 08:36:00;;;;;;;49.00;25.48;;;;;;;1.80;85.77;97556.44;1856523;77;21026;-79
2020/12/08 08:38:26;;;;;;;49.65;26.73;;;;;;;1.89;85.88;97555.03;1856463;77;21241;-79
2020/12/08 08:40:55;;;;;;;54.88;27.02;;;;;;;1.91;85.78;97553.73;1856326;77;21201;-78
2020/12/08 08:43:21;;;;;;;52.33;27.73;;;;;;;1.93;85.52;97554.30;1824934;77;26966;-78
2020/12/08 08:45:47;;;;;;;49.58;26.25;;;;;;;1.96;85.31;97560.50;1856188;77;21118;-78
2020/12/08 08:48:15;;;;;;;49.40;25.35;;;;;;;2.00;85.21;97553.38;1856318;77;21106;-79
2020/12/08 08:50:41;;;;;;;47.48;23.07;;;;;;;2.02;85.06;97552.08;1856363;77;21217;-79
2020/12/08 08:53:08;;;;;;;51.88;25.60;;;;;;;2.06;84.79;97555.11;1856326;77;21044;-79
2020/12/08 08:55:34;;;;;;;47.62;24.43;;;;;;;2.07;84.75;97558.06;1856433;77;21123;-78
2020/12/08 08:58:00;;;;;;;51.00;25.15;;;;;;;2.06;84.77;97559.12;1856271;77;21024;-78
2020/12/08 09:00:30;;;;;;;41.35;23.95;;;;;;;2.07;84.76;97566.90;1856385;77;21099;-78
2020/12/08 09:02:59;;;;;;;48.70;25.97;;;;;;;2.02;84.62;97564.63;1853420;77;21097;-78
2020/12/08 09:05:26;;;;;;;50.12;24.82;;;;;;;1.99;84.68;97567.27;1856520;77;21183;-78
2020/12/08 09:07:52;;;;;;;57.53;29.20;;;;;;;1.85;84.90;97561.87;1856162;77;21162;-78
2020/12/08 09:10:20;;;;;;;54.03;29.20;;;;;;;1.91;84.92;97561.75;1825193;77;21043;-78
2020/12/08 09:12:46;;;;;;;56.48;26.77;;;;;;;2.03;84.95;97564.39;1856749;77;21051;-78
2020/12/08 09:15:13;;;;;;;56.13;27.55;;;;;;;1.97;84.79;97566.16;1856501;77;21173;-78
2020/12/08 09:17:39;;;;;;;50.50;25.25;;;;;;;1.97;84.86;97564.02;1856392;77;21016;-78
2020/12/08 09:20:06;;;;;;;57.17;26.70;;;;;;;2.12;84.82;97562.16;1855853;77;21642;-78
2020/12/08 09:22:32;;;;;;;56.08;26.60;;;;;;;2.18;84.65;97554.54;1855762;77;21162;-78
2020/12/08 09:24:58;;;;;;;50.90;27.77;;;;;;;2.23;84.61;97553.32;1855854;77;21456;-78
2020/12/08 09:27:24;;;;;;;47.90;24.70;;;;;;;2.31;84.78;97556.95;1855759;77;21682;-79
2020/12/08 09:29:51;;;;;;;79.05;38.65;;;;;;;2.40;84.61;97558.73;1855845;77;21052;-79
2020/12/08 09:32:18;;;;;;;66.33;35.98;;;;;;;2.43;84.50;97563.06;1824892;77;21182;-78
2020/12/08 09:34:45;;;;;;;58.02;29.63;;;;;;;2.45;84.32;97560.95;1855723;77;21162;-78
2020/12/08 09:37:11;;;;;;;51.35;26.48;;;;;;;2.51;84.52;97561.87;1855680;77;21020;-79
2020/12/08 09:39:38;;;;;;;46.25;27.13;;;;;;;2.39;84.18;97567.77;1855729;77;21054;-78
2020/12/08 09:42:04;;;;;;;51.20;27.20;;;;;;;2.42;83.92;97565.45;1855658;77;21135;-78
2020/12/08 09:44:30;;;;;;;56.25;27.98;;;;;;;2.33;83.95;97561.53;1855768;77;21026;-78
2020/12/08 09:46:57;;;;;;;65.55;33.88;;;;;;;2.33;84.04;97557.52;1824862;77;21381;-79
2020/12/08 09:49:23;;;;;;;62.05;27.90;;;;;;;2.26;83.96;97564.34;1855724;77;21197;-78
2020/12/08 09:51:50;;;;;;;53.98;29.77;;;;;;;2.25;84.00;97561.37;1855718;77;21408;-78
2020/12/08 09:54:18;;;;;;;58.98;28.57;;;;;;;2.14;83.79;97564.09;1855487;77;21107;-78
2020/12/08 09:56:49;;;;;;;62.60;32.42;;;;;;;2.30;84.04;97566.52;1855875;77;21114;-78
2020/12/08 09:59:16;;;;;;;49.65;27.05;;;;;;;2.35;84.04;97563.44;1855704;77;21111;-77
2020/12/08 10:01:43;;;;;;;63.20;30.95;;;;;;;2.47;84.23;97568.20;1855850;77;21166;-78
2020/12/08 10:04:09;;;;;;;44.95;25.35;;;;;;;2.57;84.18;97568.14;1824664;77;22082;-78
2020/12/08 10:06:37;;;;;;;51.80;26.07;;;;;;;2.42;83.82;97570.80;1855501;77;21115;-78
2020/12/08 10:09:03;;;;;;;50.20;26.02;;;;;;;2.48;83.89;97567.70;1855626;77;21115;-77
2020/12/08 10:11:30;;;;;;;51.10;27.95;;;;;;;2.43;83.60;97571.61;1855753;77;21174;-78
2020/12/08 10:13:57;;;;;;;54.83;28.70;;;;;;;2.37;83.46;97577.37;1855667;77;21126;-78
2020/12/08 10:16:24;;;;;;;63.60;33.90;;;;;;;2.28;83.56;97564.09;1855709;77;21571;-78
2020/12/08 10:18:52;;;;;;;65.12;33.83;;;;;;;2.18;83.86;97570.05;1855527;77;21508;-78
2020/12/08 10:21:23;;;;;;;63.55;31.55;;;;;;;2.24;84.03;97573.12;1855663;77;21031;-78
2020/12/08 10:23:52;;;;;;;51.00;27.40;;;;;;;2.36;84.11;97575.75;1855722;77;21546;-78
2020/12/08 10:26:19;;;;;;;43.30;23.00;;;;;;;2.36;83.92;97573.08;1825275;77;21051;-77
2020/12/08 10:28:45;;;;;;;62.30;29.92;;;;;;;2.51;83.92;97568.56;1824775;77;21808;-78
2020/12/08 10:31:13;;;;;;;56.50;29.60;;;;;;;2.51;84.02;97566.69;1855633;77;21054;-78
2020/12/08 10:33:39;;;;;;;54.70;27.82;;;;;;;2.57;84.09;97560.11;1855872;77;21512;-78
2020/12/08 10:36:07;;;;;;;59.27;33.30;;;;;;;2.68;84.16;97571.28;1855699;77;21107;-77
2020/12/08 10:38:33;;;;;;;68.72;36.28;;;;;;;2.70;83.77;97575.33;1852786;77;21108;-77
2020/12/08 10:40:59;;;;;;;54.25;27.52;;;;;;;2.68;83.80;97576.63;1855631;77;21214;-78
2020/12/08 10:43:27;;;;;;;54.45;27.90;;;;;;;2.58;83.99;97571.09;1855731;77;20991;-78
2020/12/08 10:45:54;;;;;;;58.92;28.47;;;;;;;2.45;83.90;97572.17;1854806;77;21138;-78
2020/12/08 10:48:20;;;;;;;53.90;26.50;;;;;;;2.47;83.89;97572.74;1855667;77;21420;-78
2020/12/08 10:50:47;;;;;;;51.18;27.67;;;;;;;2.35;84.17;97571.98;1855701;77;21027;-78
2020/12/08 10:53:14;;;;;;;46.45;24.45;;;;;;;2.33;84.14;97578.10;1855834;77;21861;-78
2020/12/08 10:55:41;;;;;;;52.75;28.15;;;;;;;2.20;84.12;97569.28;1855563;77;21181;-77
2020/12/08 10:58:07;;;;;;;53.25;26.57;;;;;;;2.25;84.36;97571.27;1855620;77;21073;-78
2020/12/08 11:00:35;;;;;;;50.20;25.90;;;;;;;2.33;84.64;97572.23;1855665;77;21115;-78
2020/12/08 11:03:03;;;;;;;48.55;26.23;;;;;;;2.27;84.49;97565.15;1825270;77;21114;-78
2020/12/08 11:05:29;;;;;;;53.17;27.02;;;;;;;2.35;84.28;97568.78;1825616;77;22101;-78
2020/12/08 11:07:55;;;;;;;54.58;28.25;;;;;;;2.37;84.37;97572.02;1855503;77;21070;-78
2020/12/08 11:10:23;;;;;;;51.35;29.50;;;;;;;2.52;84.64;97573.66;1855511;77;21181;-78
2020/12/08 11:12:49;;;;;;;49.85;26.07;;;;;;;2.35;84.87;97571.98;1825109;77;21139;-78
2020/12/08 11:15:19;;;;;;;51.53;30.10;;;;;;;2.52;84.80;97569.66;1855590;77;21023;-78
2020/12/08 11:17:45;;;;;;;;;;;;;;;2.48;84.65;97569.86;1858259;77;21980;-78
2020/12/08 11:20:12;;;;;;;67.85;32.75;;;;;;;2.60;84.70;97572.47;1855407;77;20277;-78
2020/12/08 11:22:38;;;;;;;55.45;28.87;;;;;;;2.74;84.62;97571.66;1855444;77;21015;-78
2020/12/08 11:25:06;;;;;;;55.63;27.27;;;;;;;2.83;84.38;97575.05;1855425;77;21162;-78
2020/12/08 11:27:36;;;;;;;54.10;26.85;;;;;;;2.83;83.72;97579.59;1855308;77;21574;-77
2020/12/08 11:30:03;;;;;;;63.70;28.60;;;;;;;2.76;83.79;97581.06;1855062;77;21551;-77
2020/12/08 11:32:30;;;;;;;61.00;30.97;;;;;;;2.76;83.78;97571.70;1855316;77;21504;-77
2020/12/08 11:34:56;;;;;;;54.10;27.35;;;;;;;2.81;83.75;97575.78;1855298;77;21131;-78